Time;durP1;ratioP1;P1;durP2;ratioP2;P2;SDS_P1;SDS_P2;PMS_P1;PMS_P2;Temp;Humidity;BMP_temperature;BMP_pressure;BME280_temperature;BME280_humidity;BME280_pressure;Samples;Min_cycle;Max_cycle;Signal;HPM_P1;HPM_P2
2022/05/12 00:00:31;;;;;;;4.43;0.50;;;8.70;1.00;;;;;;5035968;28;20506;-78
2022/05/12 00:02:58;;;;;;;3.03;0.88;;;8.80;1.00;;;;;;5018528;28;20022;-79
2022/05/12 00:05:24;;;;;;;4.80;1.10;;;8.80;1.00;;;;;;5018043;28;20091;-79
2022/05/12 00:07:50;;;;;;;2.30;0.90;;;8.80;1.00;;;;;;5018184;28;20027;-79
2022/05/12 00:10:20;;;;;;;2.55;0.90;;;8.80;1.00;;;;;;5035979;28;20034;-79
2022/05/12 00:12:46;;;;;;;4.63;1.08;;;8.80;1.00;;;;;;5018100;28;20048;-78
2022/05/12 00:15:16;;;;;;;1.73;1.15;;;8.70;1.00;;;;;;5035292;28;20068;-79
2022/05/12 00:21:03;;;;;;;2.95;0.90;;;8.60;42.20;;;;;;5034984;28;20440;-79
2022/05/12 00:26:51;;;;;;;4.78;1.10;;;8.70;99.90;;;;;;5035583;28;20515;-80
2022/05/12 00:29:17;;;;;;;4.57;1.10;;;8.50;99.90;;;;;;5035181;28;20053;-79
2022/05/12 00:31:45;;;;;;;4.72;1.73;;;8.50;99.90;;;;;;5035191;28;20732;-79
2022/05/12 00:34:11;;;;;;;5.50;1.73;;;8.50;99.90;;;;;;5035091;28;20029;-80
2022/05/12 00:36:37;;;;;;;8.38;1.60;;;8.50;99.90;;;;;;5035098;28;20022;-80
2022/05/12 00:39:04;;;;;;;6.20;1.20;;;8.60;99.90;;;;;;5035069;28;20507;-80
2022/05/12 00:41:30;;;;;;;6.35;1.50;;;8.60;99.90;;;;;;5035178;28;20021;-80
2022/05/12 00:44:02;;;;;;;4.75;1.42;;;8.60;99.90;;;;;;5035503;28;20109;-80
2022/05/12 00:46:35;;;;;;;4.57;1.27;;;8.60;99.90;;;;;;5035640;28;20103;-79
2022/05/12 00:49:27;;;;;;;3.33;1.33;;;8.40;99.90;;;;;;5017434;28;20064;-80
2022/05/12 00:51:58;;;;;;;6.18;1.40;;;8.40;99.90;;;;;;5035170;28;20040;-80
2022/05/12 00:54:30;;;;;;;5.45;1.90;;;8.40;99.90;;;;;;5035107;28;20451;-80
2022/05/12 00:56:58;;;;;;;5.43;1.60;;;8.30;99.90;;;;;;5035031;28;20022;-80
2022/05/12 00:59:29;;;;;;;4.90;1.50;;;8.40;99.90;;;;;;5034828;28;20381;-80
2022/05/12 01:01:57;;;;;;;6.70;1.50;;;8.30;99.90;;;;;;5034823;28;20022;-80
2022/05/12 01:04:24;;;;;;;3.83;1.10;;;8.30;99.90;;;;;;5034612;28;20021;-80
2022/05/12 01:06:51;;;;;;;5.55;1.52;;;8.30;99.90;;;;;;5034621;28;20014;-80
2022/05/12 01:09:16;;;;;;;10.15;1.67;;;8.30;99.90;;;;;;5034721;28;20017;-80
2022/05/12 01:11:42;;;;;;;6.13;1.70;;;8.30;99.90;;;;;;5034330;28;20032;-80
2022/05/12 01:14:09;;;;;;;4.57;1.55;;;8.30;99.90;;;;;;5034434;28;20036;-80
2022/05/12 01:16:45;;;;;;;5.53;1.70;;;8.40;99.90;;;;;;5034114;28;20048;-80
2022/05/12 01:19:17;;;;;;;5.68;1.70;;;8.30;99.90;;;;;;5016574;28;20044;-80
2022/05/12 01:21:44;;;;;;;5.28;1.70;;;8.40;99.90;;;;;;5034473;28;20043;-80
2022/05/12 01:24:10;;;;;;;8.60;2.08;;;8.30;99.90;;;;;;5034854;28;20017;-80
2022/05/12 01:26:36;;;;;;;6.90;1.95;;;8.30;99.90;;;;;;5034440;28;20037;-80
2022/05/12 01:29:03;;;;;;;7.18;1.88;;;8.20;99.90;;;;;;5034329;28;20025;-80
2022/05/12 01:31:29;;;;;;;6.10;1.85;;;8.20;99.90;;;;;;5034356;28;20103;-80
2022/05/12 01:33:54;;;;;;;3.13;1.65;;;8.00;99.90;;;;;;5033999;28;20049;-80
2022/05/12 01:36:20;;;;;;;12.35;2.45;;;8.00;99.90;;;;;;5016116;28;20033;-80
2022/05/12 01:38:47;;;;;;;10.38;3.53;;;7.90;99.90;;;;;;5016288;28;20103;-80
2022/05/12 01:41:13;;;;;;;9.82;2.90;;;7.90;99.90;;;;;;5016275;28;20104;-80
2022/05/12 01:43:39;;;;;;;11.02;2.53;;;7.90;99.90;;;;;;5033775;28;20021;-80
2022/05/12 01:46:05;;;;;;;5.75;2.47;;;8.00;99.90;;;;;;5016734;28;20095;-79
2022/05/12 01:48:30;;;;;;;4.22;2.40;;;8.00;99.90;;;;;;5016611;28;20029;-79
2022/05/12 01:50:56;;;;;;;10.15;2.70;;;8.10;99.90;;;;;;5034435;28;20045;-80
2022/05/12 01:53:22;;;;;;;5.30;2.67;;;8.30;99.90;;;;;;5034259;28;20068;-80
2022/05/12 01:55:49;;;;;;;10.98;3.33;;;8.10;99.90;;;;;;5034254;28;20534;-79
2022/05/12 01:58:19;;;;;;;15.30;3.95;;;8.20;99.90;;;;;;5034537;28;20053;-80
2022/05/12 02:00:45;;;;;;;8.23;3.90;;;8.10;99.90;;;;;;5016476;28;20036;-80
2022/05/12 02:03:10;;;;;;;12.20;3.70;;;8.10;99.90;;;;;;5016200;28;20120;-80
2022/05/12 02:05:38;;;;;;;7.22;3.03;;;8.00;99.90;;;;;;5033762;28;20111;-80
2022/05/12 02:08:05;;;;;;;12.68;3.53;;;8.00;99.90;;;;;;5033730;28;20057;-81
2022/05/12 02:10:35;;;;;;;9.68;3.08;;;7.90;99.90;;;;;;5033789;28;20523;-80
2022/05/12 02:13:01;;;;;;;12.50;3.50;;;7.90;99.90;;;;;;5033805;28;20452;-80
2022/05/12 02:15:26;;;;;;;9.57;3.42;;;8.00;99.90;;;;;;5028895;28;20125;-80
2022/05/12 02:17:52;;;;;;;8.50;3.67;;;8.10;99.90;;;;;;5015977;28;20025;-80
2022/05/12 02:20:20;;;;;;;11.80;3.60;;;8.00;99.90;;;;;;5033893;28;20021;-80
2022/05/12 02:22:46;;;;;;;6.38;3.17;;;8.10;99.90;;;;;;5034154;28;20018;-80
2022/05/12 02:25:12;;;;;;;9.30;3.60;;;8.00;99.90;;;;;;5033811;28;20025;-80
2022/05/12 02:27:42;;;;;;;12.73;3.00;;;8.00;99.90;;;;;;5033626;28;20423;-81
2022/05/12 02:30:09;;;;;;;;;;;8.10;99.90;;;;;;5016224;28;20504;-80
2022/05/12 02:32:34;;;;;;;8.90;3.20;;;8.20;99.90;;;;;;5033509;28;19963;-81
2022/05/12 02:35:00;;;;;;;7.68;2.80;;;8.10;99.90;;;;;;5033304;28;20033;-81
2022/05/12 02:37:26;;;;;;;13.50;4.15;;;8.10;99.90;;;;;;5033523;28;20026;-81
2022/05/12 02:39:51;;;;;;;6.68;2.95;;;8.00;99.90;;;;;;5032217;28;20021;-80
2022/05/12 02:42:17;;;;;;;8.07;2.92;;;7.90;99.90;;;;;;5033329;28;20057;-81
2022/05/12 02:44:43;;;;;;;8.80;2.92;;;7.90;99.90;;;;;;5035101;28;20029;-80
2022/05/12 02:47:08;;;;;;;9.48;3.50;;;7.90;99.90;;;;;;5036938;28;20076;-79
2022/05/12 02:49:35;;;;;;;10.27;3.65;;;8.00;99.90;;;;;;5037370;28;20030;-79
2022/05/12 02:52:00;;;;;;;11.68;3.28;;;8.00;99.90;;;;;;5037153;28;20577;-79
2022/05/12 02:54:26;;;;;;;6.60;2.95;;;7.90;99.90;;;;;;5036121;28;20030;-79
2022/05/12 02:56:55;;;;;;;11.27;3.88;;;7.80;99.90;;;;;;5037083;28;20092;-79
2022/05/12 02:59:22;;;;;;;5.37;3.03;;;8.00;99.90;;;;;;5037385;28;20079;-79
2022/05/12 03:01:48;;;;;;;7.95;3.08;;;7.90;99.90;;;;;;5041689;28;20020;-79
2022/05/12 03:04:13;;;;;;;12.05;3.95;;;7.90;99.90;;;;;;5039050;28;20025;-80
2022/05/12 03:06:39;;;;;;;9.73;3.47;;;7.70;99.90;;;;;;5057004;28;20021;-80
2022/05/12 03:09:06;;;;;;;13.88;3.90;;;7.90;99.90;;;;;;5056865;28;20052;-80
2022/05/12 03:11:32;;;;;;;9.25;3.30;;;7.90;99.90;;;;;;5057050;28;20033;-80
2022/05/12 03:13:59;;;;;;;8.73;3.22;;;7.90;99.90;;;;;;5056813;28;20029;-80
2022/05/12 03:16:25;;;;;;;8.57;3.10;;;7.80;99.90;;;;;;5023341;28;20046;-80
2022/05/12 03:18:53;;;;;;;8.05;3.58;;;7.80;99.90;;;;;;5017100;28;20520;-80
2022/05/12 03:21:20;;;;;;;11.00;3.88;;;8.00;99.90;;;;;;5017232;28;20018;-80
2022/05/12 03:23:46;;;;;;;8.52;3.33;;;8.00;99.90;;;;;;5016106;28;20025;-79
2022/05/12 03:26:12;;;;;;;13.30;3.65;;;8.00;99.90;;;;;;5017152;28;20022;-79
2022/05/12 03:28:38;;;;;;;10.13;3.97;;;7.80;99.90;;;;;;5016874;28;20105;-80
2022/05/12 03:31:04;;;;;;;10.43;3.92;;;7.80;99.90;;;;;;5015639;28;20122;-80
2022/05/12 03:33:30;;;;;;;11.23;3.47;;;7.80;99.90;;;;;;5016789;28;20033;-80
2022/05/12 03:35:58;;;;;;;8.77;3.78;;;7.70;99.90;;;;;;5016303;28;20026;-80
2022/05/12 03:38:24;;;;;;;11.30;3.50;;;8.00;99.90;;;;;;5016533;28;20110;-80
2022/05/12 03:40:50;;;;;;;9.93;3.60;;;7.90;99.90;;;;;;5016416;28;20026;-80
2022/05/12 03:44:46;;;;;;;20.83;4.50;;;7.90;99.90;;;;;;5016690;28;20096;-80
2022/05/12 03:46:03;;;;;;;8.98;3.53;;;7.90;99.90;;;;;;5016605;28;20034;-80
2022/05/12 03:48:29;;;;;;;10.88;3.70;;;7.80;99.90;;;;;;5016475;28;20041;-80
2022/05/12 03:50:54;;;;;;;10.93;3.65;;;7.70;99.90;;;;;;5016228;28;20026;-80
2022/05/12 03:53:20;;;;;;;10.27;3.70;;;7.80;99.90;;;;;;5016068;28;20080;-80
2022/05/12 03:55:46;;;;;;;17.00;4.13;;;7.90;99.90;;;;;;5015849;28;20025;-81
2022/05/12 03:58:11;;;;;;;8.35;3.75;;;7.80;99.90;;;;;;5016204;28;20053;-80
2022/05/12 04:00:38;;;;;;;11.13;3.60;;;7.70;99.90;;;;;;5016059;28;20097;-82
2022/05/12 04:03:04;;;;;;;9.48;3.88;;;7.90;99.90;;;;;;5016675;28;20350;-80
2022/05/12 04:05:31;;;;;;;8.70;3.67;;;7.80;99.90;;;;;;5017437;28;20079;-80
2022/05/12 04:08:39;;;;;;;11.88;4.25;;;7.80;99.90;;;;;;5017516;28;20504;-80
2022/05/12 04:11:07;;;;;;;6.38;3.50;;;7.80;99.90;;;;;;5015941;28;20041;-81
2022/05/12 04:13:41;;;;;;;8.82;3.60;;;7.80;99.90;;;;;;5017888;28;20022;-81
2022/05/12 04:16:06;;;;;;;8.80;3.30;;;7.90;99.90;;;;;;5024550;28;20041;-81
2022/05/12 04:18:32;;;;;;;12.20;3.13;;;8.10;99.90;;;;;;5036050;28;20084;-81
2022/05/12 04:20:57;;;;;;;9.90;3.20;;;8.30;99.90;;;;;;5035468;28;20032;-80
2022/05/12 04:23:23;;;;;;;9.32;3.78;;;8.20;99.90;;;;;;5037047;28;20021;-81
2022/05/12 04:25:49;;;;;;;12.60;4.15;;;8.80;99.90;;;;;;5035494;28;20029;-80
2022/05/12 04:28:14;;;;;;;11.55;4.10;;;9.00;99.90;;;;;;5010991;28;20477;-81
2022/05/12 04:30:40;;;;;;;10.10;3.60;;;8.80;99.90;;;;;;5016045;28;20026;-81
2022/05/12 04:35:50;;;;;;;9.43;3.28;;;8.70;99.90;;;;;;4998466;28;20145;-81
2022/05/12 04:38:16;;;;;;;9.65;3.38;;;8.70;99.90;;;;;;4996387;28;20061;-81
2022/05/12 04:40:41;;;;;;;15.68;4.45;;;8.70;99.90;;;;;;5001157;28;20033;-80
2022/05/12 04:43:07;;;;;;;13.73;3.33;;;8.70;99.90;;;;;;5014675;28;20377;-81
2022/05/12 04:45:34;;;;;;;12.00;3.78;;;8.80;99.90;;;;;;5016238;28;20104;-81
2022/05/12 04:47:59;;;;;;;11.80;3.17;;;8.90;99.90;;;;;;5015781;28;20049;-81
2022/05/12 04:50:31;;;;;;;11.35;3.05;;;8.90;99.90;;;;;;5015865;28;20025;-81
2022/05/12 04:52:58;;;;;;;5.78;3.03;;;9.00;99.90;;;;;;5015686;28;20121;-81
2022/05/12 04:55:24;;;;;;;7.28;2.88;;;9.00;99.90;;;;;;5015622;28;20022;-81
2022/05/12 04:57:53;;;;;;;9.25;3.28;;;9.10;99.90;;;;;;5015600;28;20025;-81
2022/05/12 05:00:28;;;;;;;8.07;2.95;;;9.10;99.90;;;;;;5015877;28;20053;-81
2022/05/12 05:02:55;;;;;;;9.07;3.33;;;9.30;99.90;;;;;;5015685;28;20109;-81
2022/05/12 05:05:20;;;;;;;12.50;4.22;;;11.00;99.90;;;;;;5014148;28;20663;-81
2022/05/12 05:07:46;;;;;;;15.55;4.70;;;14.30;99.90;;;;;;5014987;28;20093;-81
2022/05/12 05:10:13;;;;;;;11.27;4.30;;;16.10;99.90;;;;;;5015410;28;20080;-81
2022/05/12 05:12:43;;;;;;;10.63;3.38;;;17.00;99.90;;;;;;5015558;28;20098;-81
2022/05/12 05:15:10;;;;;;;;;;;17.80;99.90;;;;;;4998739;28;20029;-81
2022/05/12 05:17:36;;;;;;;15.80;3.67;;;19.00;99.90;;;;;;5035233;28;20349;-82
2022/05/12 05:20:08;;;;;;;7.25;2.58;;;20.20;99.90;;;;;;5035184;28;20022;-81
2022/05/12 05:22:33;;;;;;;7.88;2.20;;;21.40;99.90;;;;;;5035118;28;20025;-81
2022/05/12 05:25:00;;;;;;;8.85;2.50;;;21.60;99.90;;;;;;5034666;28;20377;-81
2022/05/12 05:27:25;;;;;;;6.78;1.83;;;23.20;1.00;;;;;;5034755;28;20031;-82
2022/05/12 05:29:51;;;;;;;10.52;2.90;;;24.30;1.00;;;;;;5016881;28;20029;-82
2022/05/12 05:32:17;;;;;;;6.13;1.92;;;24.70;99.90;;;;;;5017041;28;20022;-82
2022/05/12 05:34:43;;;;;;;5.80;1.60;;;25.60;99.90;;;;;;5034393;28;20027;-82
2022/05/12 05:37:08;;;;;;;5.60;2.00;;;26.30;99.90;;;;;;5016838;28;20428;-82
2022/05/12 05:39:35;;;;;;;7.15;1.75;;;26.90;99.90;;;;;;5034444;28;20029;-83
2022/05/12 05:42:09;;;;;;;9.88;2.28;;;27.20;99.90;;;;;;5049876;28;20029;-82
2022/05/12 05:44:35;;;;;;;7.05;1.42;;;27.30;99.90;;;;;;5034299;28;20071;-83
2022/05/12 05:47:01;;;;;;;4.78;1.45;;;28.60;99.90;;;;;;5034548;28;20029;-82
2022/05/12 05:49:28;;;;;;;9.20;2.10;;;29.60;99.90;;;;;;5034138;28;20048;-82
2022/05/12 05:54:38;;;;;;;6.15;1.52;;;30.30;99.90;;;;;;5034216;28;20032;-82
2022/05/12 05:57:04;;;;;;;8.25;1.77;;;30.20;99.90;;;;;;5034168;28;20381;-82
2022/05/12 05:59:29;;;;;;;8.80;1.63;;;30.20;99.90;;;;;;5034513;28;20037;-82
2022/05/12 06:01:56;;;;;;;10.50;2.03;;;31.60;99.90;;;;;;5034517;28;20045;-82
2022/05/12 06:04:21;;;;;;;6.40;1.48;;;31.60;99.90;;;;;;5039832;28;20049;-82
2022/05/12 06:06:47;;;;;;;7.60;1.80;;;32.00;99.90;;;;;;5035946;28;20364;-82
2022/05/12 06:09:13;;;;;;;10.30;1.60;;;32.70;99.90;;;;;;5053771;28;20104;-82
2022/05/12 06:11:41;;;;;;;10.02;1.80;;;30.80;99.90;;;;;;5054031;28;20025;-82
2022/05/12 06:14:07;;;;;;;5.85;1.48;;;31.70;99.90;;;;;;5054014;28;20025;-82
2022/05/12 06:16:33;;;;;;;5.30;1.10;;;32.50;99.90;;;;;;5053508;28;20044;-82
2022/05/12 06:18:58;;;;;;;6.03;1.38;;;32.80;99.90;;;;;;5054537;28;20028;-82
2022/05/12 06:21:31;;;;;;;8.27;1.58;;;32.60;99.90;;;;;;5058077;28;20692;-82
2022/05/12 06:27:22;;;;;;;4.50;1.23;;;33.10;99.90;;;;;;5057879;28;20024;-83
2022/05/12 06:29:48;;;;;;;7.20;1.23;;;35.00;99.90;;;;;;5058130;28;20025;-82
2022/05/12 06:32:14;;;;;;;5.68;1.67;;;34.00;99.90;;;;;;5057825;28;20040;-83
2022/05/12 06:34:45;;;;;;;6.03;1.85;;;34.50;99.90;;;;;;5057771;28;20110;-83
2022/05/12 06:37:10;;;;;;;8.07;1.63;;;34.90;99.90;;;;;;5038488;28;20450;-83
2022/05/12 06:39:37;;;;;;;3.35;1.00;;;35.60;99.90;;;;;;5038992;28;20495;-83
2022/05/12 06:42:04;;;;;;;6.07;1.50;;;37.00;99.90;;;;;;5056960;28;20027;-83
2022/05/12 06:44:29;;;;;;;7.95;1.70;;;35.40;99.90;;;;;;5056761;28;20090;-83
2022/05/12 06:46:55;;;;;;;6.57;1.70;;;37.20;99.90;;;;;;5044591;28;20025;-83
2022/05/12 06:49:21;;;;;;;5.40;1.60;;;38.40;99.90;;;;;;5002636;28;20025;-83
2022/05/12 06:51:47;;;;;;;5.30;1.40;;;37.90;99.90;;;;;;5035767;28;20022;-82
2022/05/12 06:54:13;;;;;;;6.40;1.60;;;38.10;99.90;;;;;;5036881;28;20033;-83
2022/05/12 06:56:41;;;;;;;6.85;1.38;;;38.40;99.90;;;;;;5036621;28;20396;-83
2022/05/12 06:59:07;;;;;;;6.07;1.17;;;37.80;99.90;;;;;;5036889;28;20033;-83
2022/05/12 07:01:33;;;;;;;8.27;1.98;;;38.10;99.90;;;;;;5038813;28;20121;-82
2022/05/12 07:04:00;;;;;;;10.77;1.75;;;37.80;99.90;;;;;;5027407;28;20021;-83
2022/05/12 07:06:27;;;;;;;6.28;1.60;;;37.30;99.90;;;;;;5043126;28;20040;-83
2022/05/12 07:08:52;;;;;;;6.10;1.40;;;37.20;99.90;;;;;;5038728;28;20503;-83
2022/05/12 07:11:18;;;;;;;6.72;1.27;;;37.60;99.90;;;;;;5054846;28;20025;-83
2022/05/12 07:13:43;;;;;;;5.32;1.33;;;37.40;99.90;;;;;;5038546;28;20040;-82
2022/05/12 07:16:09;;;;;;;6.35;1.10;;;37.90;99.90;;;;;;5047345;28;20416;-83
2022/05/12 07:18:36;;;;;;;4.93;1.27;;;39.00;99.90;;;;;;5055974;28;20418;-83
2022/05/12 07:26:40;;;;;;;3.95;1.08;;;38.50;99.90;;;;;;5038910;28;20071;-83
2022/05/12 07:29:36;;;;;;;6.00;1.60;;;39.50;99.90;;;;;;5041323;28;20040;-83
2022/05/12 07:32:02;;;;;;;6.75;1.30;;;40.20;99.90;;;;;;5001862;28;20034;-83
2022/05/12 07:34:27;;;;;;;6.70;1.42;;;40.30;99.90;;;;;;5036137;28;20029;-83
2022/05/12 07:36:54;;;;;;;5.32;1.65;;;40.10;99.90;;;;;;5023110;28;20025;-84
2022/05/12 07:39:25;;;;;;;5.45;1.42;;;40.80;99.90;;;;;;5055807;28;20108;-83
2022/05/12 07:41:52;;;;;;;7.13;1.65;;;40.40;99.90;;;;;;5055755;28;20478;-81
2022/05/12 07:44:19;;;;;;;6.07;1.48;;;40.30;99.90;;;;;;5038060;28;20033;-83
2022/05/12 07:46:45;;;;;;;3.65;1.23;;;39.30;99.90;;;;;;5055732;28;20021;-83
2022/05/12 07:49:11;;;;;;;5.30;1.60;;;39.60;99.90;;;;;;5055257;28;20017;-81
2022/05/12 07:51:37;;;;;;;6.93;1.50;;;40.40;99.90;;;;;;5055274;28;20029;-82
2022/05/12 07:54:03;;;;;;;7.18;1.58;;;41.20;99.90;;;;;;5055263;28;20025;-82
2022/05/12 07:56:29;;;;;;;5.78;1.30;;;39.90;99.90;;;;;;5055336;28;20063;-82
2022/05/12 07:58:56;;;;;;;5.38;1.45;;;38.80;99.90;;;;;;5037620;28;20036;-83
2022/05/12 08:01:23;;;;;;;8.68;1.80;;;40.10;99.90;;;;;;5055276;28;20462;-83
2022/05/12 08:03:49;;;;;;;4.65;1.60;;;38.40;99.90;;;;;;5037787;28;20087;-83
2022/05/12 08:06:16;;;;;;;7.43;1.92;;;39.00;99.90;;;;;;5037055;28;20025;-82
2022/05/12 08:08:48;;;;;;;7.88;1.95;;;39.20;99.90;;;;;;5037522;28;20099;-83
2022/05/12 08:11:14;;;;;;;6.95;1.67;;;39.80;99.90;;;;;;5037335;28;20032;-83
2022/05/12 08:13:42;;;;;;;7.30;1.70;;;39.70;99.90;;;;;;5055298;28;20033;-83
2022/05/12 08:16:08;;;;;;;5.03;1.52;;;39.80;99.90;;;;;;5054904;28;20471;-84
2022/05/12 08:18:35;;;;;;;4.07;1.63;;;40.00;99.90;;;;;;5042922;28;20113;-83
2022/05/12 08:21:02;;;;;;;6.65;1.70;;;39.90;99.90;;;;;;5042653;28;20146;-83
2022/05/12 08:23:27;;;;;;;7.28;1.48;;;39.30;99.90;;;;;;5054818;28;20021;-83
2022/05/12 08:25:53;;;;;;;5.47;1.67;;;37.80;99.90;;;;;;5051415;28;20022;-83
2022/05/12 08:28:22;;;;;;;7.72;1.45;;;38.60;99.90;;;;;;5034896;28;20025;-83
2022/05/12 08:30:49;;;;;;;3.80;1.30;;;38.70;99.90;;;;;;5034544;28;20480;-83
2022/05/12 08:33:15;;;;;;;6.55;1.63;;;39.40;99.90;;;;;;5034616;28;20480;-83
2022/05/12 08:35:44;;;;;;;6.75;1.63;;;40.70;99.90;;;;;;5034664;28;20164;-84
2022/05/12 08:38:11;;;;;;;3.90;1.45;;;39.40;99.90;;;;;;5034606;28;20087;-83
2022/05/12 08:40:46;;;;;;;3.42;1.42;;;39.50;99.90;;;;;;5047854;28;20033;-84
2022/05/12 08:43:16;;;;;;;3.88;1.00;;;40.20;99.90;;;;;;5035787;28;20108;-83
2022/05/12 08:45:44;;;;;;;6.40;1.75;;;38.50;99.90;;;;;;5053858;28;20033;-84
2022/05/12 08:48:12;;;;;;;3.67;1.38;;;39.00;99.90;;;;;;5054393;28;20031;-83
2022/05/12 08:50:40;;;;;;;3.72;1.20;;;37.70;99.90;;;;;;5053158;28;20387;-84
2022/05/12 08:53:12;;;;;;;3.92;1.40;;;39.40;99.90;;;;;;5052986;28;20056;-84
2022/05/12 08:55:51;;;;;;;3.63;1.10;;;39.90;99.90;;;;;;5053012;28;20028;-84
2022/05/12 08:58:20;;;;;;;;;;;40.60;99.90;;;;;;5055714;28;20025;-85
2022/05/12 09:01:07;;;;;;;5.60;1.20;;;39.50;99.90;;;;;;5056066;28;19999;-84
2022/05/12 09:03:56;;;;;;;4.47;1.13;;;40.00;99.90;;;;;;5036476;28;20029;-84
2022/05/12 09:06:26;;;;;;;4.38;1.38;;;39.90;99.90;;;;;;5052916;28;20025;-84
2022/05/12 09:09:13;;;;;;;5.88;1.48;;;38.70;99.90;;;;;;5054401;28;20056;-81
2022/05/12 09:11:54;;;;;;;4.05;1.35;;;38.00;99.90;;;;;;5054416;28;20036;-82
2022/05/12 09:14:56;;;;;;;3.10;1.02;;;37.80;99.90;;;;;;5053944;28;20024;-82
2022/05/12 09:17:27;;;;;;;3.58;0.80;;;38.00;99.90;;;;;;5052703;28;20061;-83
2022/05/12 09:19:53;;;;;;;4.13;1.30;;;38.70;99.90;;;;;;5053719;28;20115;-83
2022/05/12 09:22:24;;;;;;;3.83;1.10;;;38.90;99.90;;;;;;5053630;28;20484;-84
2022/05/12 09:24:50;;;;;;;4.25;1.30;;;39.20;99.90;;;;;;5052737;28;20452;-83
2022/05/12 09:28:04;;;;;;;6.28;1.30;;;38.30;99.90;;;;;;5054021;28;20083;-83
2022/05/12 09:30:35;;;;;;;4.57;0.90;;;38.30;99.90;;;;;;5035888;28;20036;-83
2022/05/12 09:33:02;;;;;;;3.97;1.00;;;38.20;99.90;;;;;;5054026;28;20472;-83
2022/05/12 09:35:29;;;;;;;4.47;0.90;;;37.50;99.90;;;;;;5053538;28;20028;-83
2022/05/12 09:37:56;;;;;;;3.92;1.05;;;37.10;99.90;;;;;;5053341;28;20025;-83
2022/05/12 09:40:31;;;;;;;3.40;1.00;;;37.60;99.90;;;;;;5053597;28;20036;-83
2022/05/12 09:42:58;;;;;;;5.90;1.30;;;38.00;99.90;;;;;;5053750;28;20013;-83
2022/05/12 09:45:33;;;;;;;3.13;1.02;;;39.00;99.90;;;;;;5053556;28;20017;-83
2022/05/12 09:48:12;;;;;;;3.70;0.95;;;38.70;99.90;;;;;;5053557;28;20025;-83
2022/05/12 09:50:39;;;;;;;4.47;0.90;;;38.80;99.90;;;;;;5049869;28;20029;-83
2022/05/12 09:53:08;;;;;;;3.03;0.95;;;37.90;99.90;;;;;;5033210;28;20104;-84
2022/05/12 09:55:39;;;;;;;3.42;0.82;;;38.70;99.90;;;;;;5033293;28;20492;-83
2022/05/12 09:58:25;;;;;;;3.28;0.80;;;39.30;99.90;;;;;;5033327;28;20468;-83
2022/05/12 10:01:12;;;;;;;1.52;0.57;;;39.30;99.90;;;;;;5022460;28;20041;-83
2022/05/12 10:09:26;;;;;;;1.80;0.80;;;38.90;99.90;;;;;;5033535;28;20511;-83
2022/05/12 10:12:03;;;;;;;1.73;0.70;;;38.50;99.90;;;;;;5033189;28;20029;-83
2022/05/12 10:14:48;;;;;;;2.38;0.77;;;38.10;99.90;;;;;;5033120;28;20412;-83
2022/05/12 10:17:25;;;;;;;1.92;0.80;;;38.60;99.90;;;;;;5046354;28;20080;-83
2022/05/12 10:19:52;;;;;;;2.67;0.68;;;38.30;99.90;;;;;;5033523;28;20036;-82
2022/05/12 10:22:25;;;;;;;3.33;0.82;;;37.70;99.90;;;;;;5029767;28;20487;-82
2022/05/12 10:25:12;;;;;;;3.85;0.90;;;37.00;99.90;;;;;;5053005;28;20032;-83
2022/05/12 10:28:14;;;;;;;4.75;1.00;;;37.60;99.90;;;;;;5052714;28;20025;-83
2022/05/12 10:30:55;;;;;;;3.17;0.75;;;36.00;99.90;;;;;;5033024;28;20034;-83
2022/05/12 10:33:31;;;;;;;3.47;0.80;;;37.10;99.90;;;;;;5028478;28;20388;-84
2022/05/12 10:36:38;;;;;;;2.40;0.90;;;36.90;99.90;;;;;;5032915;28;20454;-83
2022/05/12 10:39:30;;;;;;;5.15;0.90;;;37.60;99.90;;;;;;5036037;28;20045;-83
2022/05/12 10:42:16;;;;;;;2.22;0.95;;;37.40;99.90;;;;;;5044481;28;20037;-83
2022/05/12 10:44:49;;;;;;;3.10;0.88;;;36.90;99.90;;;;;;5044981;28;20017;-83
2022/05/12 10:47:42;;;;;;;5.13;1.25;;;34.30;99.90;;;;;;5032851;28;20021;-83
2022/05/12 10:50:19;;;;;;;1.75;1.00;;;34.40;99.90;;;;;;5041823;28;20104;-83
2022/05/12 10:52:53;;;;;;;3.90;1.40;;;35.70;99.90;;;;;;5033126;28;20025;-83
2022/05/12 10:55:47;;;;;;;4.20;1.45;;;35.50;99.90;;;;;;5015034;28;20021;-83
2022/05/12 10:58:36;;;;;;;6.45;1.63;;;32.90;99.90;;;;;;5032449;28;20065;-83
2022/05/12 11:01:23;;;;;;;5.35;1.60;;;33.30;99.90;;;;;;5009054;28;20044;-83
2022/05/12 11:04:02;;;;;;;3.42;1.50;;;29.80;99.90;;;;;;5051372;28;20037;-82
2022/05/12 11:06:34;;;;;;;6.43;1.75;;;28.40;99.90;;;;;;5035289;28;20029;-82
2022/05/12 11:09:09;;;;;;;4.38;1.67;;;27.20;99.90;;;;;;5036275;28;20025;-83
2022/05/12 11:11:39;;;;;;;5.35;1.30;;;25.70;99.90;;;;;;5040276;28;20033;-83
2022/05/12 11:14:28;;;;;;;3.47;1.30;;;26.20;99.90;;;;;;5055961;28;20032;-83
2022/05/12 11:17:01;;;;;;;4.72;1.30;;;25.80;99.90;;;;;;5051013;28;20061;-83
2022/05/12 11:19:27;;;;;;;2.22;1.00;;;25.70;99.90;;;;;;5034776;28;20476;-82
2022/05/12 11:22:04;;;;;;;3.53;1.30;;;25.70;99.90;;;;;;5035865;28;20096;-82
2022/05/12 11:24:33;;;;;;;5.45;1.23;;;25.20;99.90;;;;;;5036138;28;20389;-82
2022/05/12 11:27:28;;;;;;;4.72;1.13;;;25.10;99.90;;;;;;5034625;28;20037;-82
2022/05/12 11:30:25;;;;;;;3.80;1.48;;;24.60;99.90;;;;;;5036050;28;20044;-83
2022/05/12 11:33:09;;;;;;;4.03;1.00;;;24.00;99.90;;;;;;5035897;28;20040;-83
2022/05/12 11:35:48;;;;;;;2.42;0.90;;;24.60;99.90;;;;;;5034581;28;20029;-83
2022/05/12 11:38:45;;;;;;;5.85;1.20;;;24.50;99.90;;;;;;5031606;28;20080;-85
2022/05/12 11:41:19;;;;;;;6.32;1.00;;;24.10;99.90;;;;;;5016365;28;20076;-82
2022/05/12 11:46:50;;;;;;;3.10;1.38;;;24.90;99.90;;;;;;5016053;28;20037;-82
2022/05/12 11:49:38;;;;;;;5.10;1.45;;;24.30;99.90;;;;;;5014531;28;20029;-82
2022/05/12 11:52:12;;;;;;;3.50;1.10;;;24.00;99.90;;;;;;5015736;28;20030;-82
2022/05/12 11:54:47;;;;;;;3.42;1.02;;;24.20;99.90;;;;;;5014457;28;20025;-83
2022/05/12 11:57:26;;;;;;;3.92;1.50;;;24.40;99.90;;;;;;5015894;28;20037;-83
2022/05/12 11:59:54;;;;;;;1.52;0.98;;;24.20;99.90;;;;;;5015868;28;20046;-82
2022/05/12 12:02:29;;;;;;;4.13;1.27;;;23.60;99.90;;;;;;5031279;28;20036;-82
2022/05/12 12:05:16;;;;;;;3.58;1.20;;;24.00;99.90;;;;;;5016175;28;20029;-82
2022/05/12 12:07:42;;;;;;;4.30;1.10;;;24.20;99.90;;;;;;4995178;28;20037;-82
2022/05/12 12:10:23;;;;;;;4.07;1.17;;;23.90;99.90;;;;;;5015813;28;20033;-82
2022/05/12 12:13:04;;;;;;;4.82;1.15;;;24.00;99.90;;;;;;5014655;28;20026;-82
2022/05/12 12:15:40;;;;;;;3.35;1.35;;;23.90;99.90;;;;;;5015312;28;20025;-83
2022/05/12 12:18:19;;;;;;;3.45;1.35;;;24.00;99.90;;;;;;5034072;28;20026;-83
2022/05/12 12:20:46;;;;;;;2.17;0.80;;;24.50;99.90;;;;;;5035316;28;20564;-83
2022/05/12 12:23:26;;;;;;;5.78;1.05;;;24.30;99.90;;;;;;5035267;28;20018;-83
2022/05/12 12:26:26;;;;;;;2.85;0.98;;;24.20;99.90;;;;;;5035628;28;20520;-83
2022/05/12 12:29:15;;;;;;;1.55;0.80;;;24.20;99.90;;;;;;5014283;28;20040;-83
2022/05/12 12:31:47;;;;;;;3.37;0.90;;;23.90;99.90;;;;;;5035218;28;20095;-84
2022/05/12 12:34:17;;;;;;;3.00;1.00;;;23.70;99.90;;;;;;5017403;28;20022;-83
2022/05/12 12:36:49;;;;;;;2.95;1.02;;;23.80;99.90;;;;;;5020084;28;20512;-83
2022/05/12 12:39:35;;;;;;;1.95;0.82;;;23.60;99.90;;;;;;5034867;28;20435;-83
2022/05/12 12:42:28;;;;;;;3.90;1.00;;;23.70;99.90;;;;;;5034764;28;20040;-82
2022/05/12 12:45:07;;;;;;;2.40;0.75;;;23.70;99.90;;;;;;5034767;28;20040;-83
2022/05/12 12:47:55;;;;;;;4.13;1.02;;;23.40;99.90;;;;;;5034581;28;20112;-83
2022/05/12 12:50:21;;;;;;;2.20;1.08;;;23.30;99.90;;;;;;5017041;28;20040;-83
2022/05/12 12:52:48;;;;;;;5.00;1.33;;;23.80;99.90;;;;;;5034860;28;20021;-83
2022/05/12 12:58:33;;;;;;;2.35;1.23;;;23.20;99.90;;;;;;5034468;28;20159;-84
2022/05/12 13:01:01;;;;;;;6.13;1.25;;;23.30;99.90;;;;;;5036797;28;20597;-83
2022/05/12 13:03:33;;;;;;;5.72;1.42;;;23.20;99.90;;;;;;5032670;28;20074;-83
2022/05/12 13:06:30;;;;;;;3.45;1.25;;;23.60;99.90;;;;;;5053429;28;20039;-83
2022/05/12 13:09:03;;;;;;;3.40;0.90;;;23.10;99.90;;;;;;5054552;28;20104;-83
2022/05/12 13:11:30;;;;;;;1.52;0.57;;;23.10;99.90;;;;;;5053982;28;20036;-83
2022/05/12 13:13:56;;;;;;;5.90;1.38;;;23.10;99.90;;;;;;5054640;28;20031;-83
2022/05/12 13:16:25;;;;;;;2.78;1.02;;;23.00;99.90;;;;;;5052795;28;20099;-83
2022/05/12 13:18:54;;;;;;;2.17;1.00;;;22.90;99.90;;;;;;5053761;28;20029;-83
2022/05/12 13:21:24;;;;;;;2.58;0.98;;;23.10;99.90;;;;;;5054030;28;20040;-83
2022/05/12 13:24:06;;;;;;;5.80;1.30;;;23.10;99.90;;;;;;5053868;28;20207;-83
2022/05/12 13:26:33;;;;;;;5.78;1.35;;;23.10;99.90;;;;;;5052641;28;20049;-83
2022/05/12 13:29:00;;;;;;;7.60;1.50;;;23.00;99.90;;;;;;5053447;28;20025;-83
2022/05/12 13:31:35;;;;;;;4.53;1.65;;;22.70;99.90;;;;;;5035590;28;20029;-83
2022/05/12 13:34:13;;;;;;;4.95;1.30;;;22.40;99.90;;;;;;5049242;28;20052;-83
2022/05/12 13:36:42;;;;;;;4.38;1.13;;;22.50;99.90;;;;;;5046320;28;20442;-84
2022/05/12 13:39:49;;;;;;;3.47;1.67;;;22.70;99.90;;;;;;5050658;28;20052;-83
2022/05/12 13:42:23;;;;;;;3.97;1.08;;;22.70;99.90;;;;;;5035680;28;20090;-85